Time;durP1;ratioP1;P1;durP2;ratioP2;P2;SDS_P1;SDS_P2;PMS_P1;PMS_P2;Temp;Humidity;BMP_temperature;BMP_pressure;BME280_temperature;BME280_humidity;BME280_pressure;Samples;Min_cycle;Max_cycle;Signal;HPM_P1;HPM_P2
2022/04/03 00:01:34;;;;;;;;;;;0.10;99.90;;;;;;5090049;28;19924;-57
2022/04/03 00:04:02;;;;;;;;;;;0.20;99.90;;;;;;5085468;28;20010;-58
2022/04/03 00:06:28;;;;;;;;;;;0.20;99.90;;;;;;5092897;28;19928;-57
2022/04/03 00:08:56;;;;;;;;;;;0.20;99.90;;;;;;5086334;28;19924;-57
2022/04/03 00:11:23;;;;;;;;;;;0.20;99.90;;;;;;5093599;28;19959;-57
2022/04/03 00:13:50;;;;;;;;;;;0.20;99.90;;;;;;5084330;28;19928;-61
2022/04/03 00:16:20;;;;;;;;;;;0.20;99.90;;;;;;5091427;28;19924;-58
2022/04/03 00:18:47;;;;;;;;;;;0.20;99.90;;;;;;5090551;28;19931;-57
2022/04/03 00:21:15;;;;;;;;;;;0.30;99.90;;;;;;5086533;28;19936;-59
2022/04/03 00:23:42;;;;;;;;;;;0.20;99.90;;;;;;5091635;28;19928;-57
2022/04/03 00:26:09;;;;;;;;;;;0.20;99.90;;;;;;5077769;28;19929;-57
2022/04/03 00:28:35;;;;;;;;;;;0.30;99.90;;;;;;5090822;28;19928;-57
2022/04/03 00:31:02;;;;;;;;;;;0.30;99.90;;;;;;5089656;28;19993;-57
2022/04/03 00:33:29;;;;;;;;;;;0.20;99.90;;;;;;5085787;28;20361;-57
2022/04/03 00:35:56;;;;;;;;;;;0.20;99.90;;;;;;5086798;28;20011;-56
2022/04/03 00:38:24;;;;;;;;;;;0.20;99.90;;;;;;5083075;28;19928;-60
2022/04/03 00:40:51;;;;;;;;;;;0.30;99.90;;;;;;5088172;28;19924;-58
2022/04/03 00:43:18;;;;;;;;;;;0.30;99.90;;;;;;5091976;28;19993;-57
2022/04/03 00:45:46;;;;;;;;;;;0.40;99.90;;;;;;5091561;28;19978;-58
2022/04/03 00:48:12;;;;;;;;;;;0.40;99.90;;;;;;5089079;28;19928;-57
2022/04/03 00:50:39;;;;;;;;;;;0.50;99.90;;;;;;5083615;28;20394;-57
2022/04/03 00:53:07;;;;;;;;;;;0.60;99.90;;;;;;5090570;28;19924;-57
2022/04/03 00:55:35;;;;;;;;;;;0.60;99.90;;;;;;5090425;28;19924;-57
2022/04/03 00:58:02;;;;;;;;;;;0.60;99.90;;;;;;5081047;28;20386;-57
2022/04/03 01:00:29;;;;;;;;;;;0.60;99.90;;;;;;5085145;28;19928;-57
2022/04/03 01:02:56;;;;;;;;;;;0.70;99.90;;;;;;5090236;28;19928;-57
2022/04/03 01:05:23;;;;;;;;;;;0.70;99.90;;;;;;5092584;28;19932;-57
2022/04/03 01:07:50;;;;;;;;;;;0.60;99.90;;;;;;5092525;28;20410;-57
2022/04/03 01:10:16;;;;;;;;;;;0.60;99.90;;;;;;5092550;28;20514;-57
2022/04/03 01:12:45;;;;;;;;;;;0.50;99.90;;;;;;5092389;28;19981;-56
2022/04/03 01:15:14;;;;;;;;;;;0.50;99.90;;;;;;5092546;28;20014;-57
2022/04/03 01:17:41;;;;;;;;;;;0.50;99.90;;;;;;5093000;28;19936;-56
2022/04/03 01:20:08;;;;;;;;;;;0.50;99.90;;;;;;5093845;28;19924;-56
2022/04/03 01:22:35;;;;;;;;;;;0.60;99.90;;;;;;5081216;28;19932;-56
2022/04/03 01:25:04;;;;;;;;;;;0.50;99.90;;;;;;5088952;28;20033;-56
2022/04/03 01:27:30;;;;;;;;;;;0.50;99.90;;;;;;5093957;28;19982;-57
2022/04/03 01:29:57;;;;;;;;;;;0.40;99.90;;;;;;5086325;28;19977;-57
2022/04/03 01:32:24;;;;;;;;;;;0.30;99.90;;;;;;5076145;28;19924;-56
2022/04/03 01:34:51;;;;;;;;;;;0.30;99.90;;;;;;5076328;28;19997;-56
2022/04/03 01:37:18;;;;;;;;;;;0.30;99.90;;;;;;5077756;28;20396;-56
2022/04/03 01:39:44;;;;;;;;;;;0.30;99.90;;;;;;5081987;28;19924;-57
2022/04/03 01:42:12;;;;;;;;;;;0.30;99.90;;;;;;5096908;28;19928;-56
2022/04/03 01:44:39;;;;;;;;;;;0.20;99.90;;;;;;5092640;28;21648;-56
2022/04/03 01:47:06;;;;;;;;;;;0.10;99.90;;;;;;5085431;28;19990;-56
2022/04/03 01:49:33;;;;;;;;;;;0.10;99.90;;;;;;5089098;28;19980;-56
2022/04/03 01:52:00;;;;;;;;;;;0.10;99.90;;;;;;5096439;28;20401;-56
2022/04/03 01:54:27;;;;;;;;;;;0.00;99.90;;;;;;5096836;28;19924;-56
2022/04/03 01:56:53;;;;;;;;;;;0.00;99.90;;;;;;5096292;28;19928;-56
2022/04/03 01:59:22;;;;;;;;;;;-0.10;99.90;;;;;;5086290;28;20007;-57
2022/04/03 02:01:49;;;;;;;;;;;-0.20;99.90;;;;;;5097324;28;19926;-56
2022/04/03 02:04:15;;;;;;;;;;;-0.10;99.90;;;;;;5098882;28;19924;-57
2022/04/03 02:06:42;;;;;;;;;;;-0.20;99.90;;;;;;5098369;28;19966;-56
2022/04/03 02:09:09;;;;;;;;;;;-0.10;99.90;;;;;;5095363;28;20378;-57
2022/04/03 02:11:36;;;;;;;;;;;-0.20;99.90;;;;;;5094795;28;20439;-57
2022/04/03 02:14:02;;;;;;;;;;;-0.20;99.90;;;;;;5095246;28;19924;-57
2022/04/03 02:16:31;;;;;;;;;;;-0.20;99.90;;;;;;5087673;28;19925;-58
2022/04/03 02:18:57;;;;;;;;;;;-0.20;99.90;;;;;;5085788;28;19973;-58
2022/04/03 02:21:24;;;;;;;;;;;-0.20;99.90;;;;;;5090017;28;20393;-57
2022/04/03 02:23:51;;;;;;;;;;;-0.10;99.90;;;;;;5085814;28;19924;-57
2022/04/03 02:26:19;;;;;;;;;;;-0.20;99.90;;;;;;5086729;28;19969;-57
2022/04/03 02:28:45;;;;;;;;;;;-0.30;99.90;;;;;;5095518;28;19923;-57
2022/04/03 02:31:16;;;;;;;;;;;-0.40;99.90;;;;;;5094560;28;19924;-58
2022/04/03 02:33:44;;;;;;;;;;;-0.40;99.90;;;;;;5094110;28;19935;-57
2022/04/03 02:36:11;;;;;;;;;;;-0.50;99.90;;;;;;5082804;28;19982;-58
2022/04/03 02:38:38;;;;;;;;;;;-0.50;99.90;;;;;;5093746;28;19928;-57
2022/04/03 02:41:05;;;;;;;;;;;-0.60;99.90;;;;;;5091750;28;19931;-57
2022/04/03 02:43:32;;;;;;;;;;;-0.60;99.90;;;;;;5094390;28;19924;-57
2022/04/03 02:45:58;;;;;;;;;;;-0.60;99.90;;;;;;5086717;28;20293;-57
2022/04/03 02:48:25;;;;;;;;;;;-0.60;99.90;;;;;;5093549;28;20439;-56
2022/04/03 02:50:53;;;;;;;;;;;-0.40;99.90;;;;;;5087527;28;19929;-56
2022/04/03 02:53:20;;;;;;;;;;;-0.40;99.90;;;;;;5081950;28;19932;-57
2022/04/03 02:55:47;;;;;;;;;;;-0.50;99.90;;;;;;5087794;28;19977;-58
2022/04/03 02:58:14;;;;;;;;;;;-0.50;99.90;;;;;;5086133;28;20065;-56
2022/04/03 03:00:40;;;;;;;;;;;-0.50;99.90;;;;;;5087331;28;20316;-59
2022/04/03 03:03:09;;;;;;;;;;;-0.50;99.90;;;;;;5094750;28;19993;-56
2022/04/03 03:05:36;;;;;;;;;;;-0.50;99.90;;;;;;5095016;28;19977;-57
2022/04/03 03:08:04;;;;;;;;;;;-0.40;99.90;;;;;;5093880;28;19924;-57
2022/04/03 03:10:31;;;;;;;;;;;-0.40;99.90;;;;;;5093731;28;19924;-58
2022/04/03 03:12:58;;;;;;;;;;;-0.40;99.90;;;;;;5094202;28;19939;-57
2022/04/03 03:15:25;;;;;;;;;;;-0.40;99.90;;;;;;5087810;28;19929;-58
2022/04/03 03:17:51;;;;;;;;;;;-0.40;99.90;;;;;;5080019;28;20308;-58
2022/04/03 03:20:19;;;;;;;;;;;-0.40;99.90;;;;;;5079673;28;20389;-58
2022/04/03 03:22:46;;;;;;;;;;;-0.40;99.90;;;;;;5085958;28;19924;-58
2022/04/03 03:25:14;;;;;;;;;;;-0.30;99.90;;;;;;5082909;28;20393;-59
2022/04/03 03:27:41;;;;;;;;;;;-0.30;99.90;;;;;;5082886;28;19936;-59
2022/04/03 03:30:09;;;;;;;;;;;-0.20;99.90;;;;;;5087817;28;19924;-58
2022/04/03 03:32:37;;;;;;;;;;;0.00;99.90;;;;;;5089806;28;20046;-58
2022/04/03 03:35:04;;;;;;;;;;;0.00;99.90;;;;;;5093305;28;19931;-58
2022/04/03 03:37:30;;;;;;;;;;;0.10;99.90;;;;;;5083839;28;19928;-58
2022/04/03 03:39:57;;;;;;;;;;;0.00;99.90;;;;;;5074071;28;19931;-59
2022/04/03 03:42:26;;;;;;;;;;;0.00;99.90;;;;;;5072731;28;20381;-58
2022/04/03 03:44:52;;;;;;;;;;;0.00;99.90;;;;;;5073305;28;19924;-58
2022/04/03 03:47:19;;;;;;;;;;;0.10;99.90;;;;;;5076660;28;19967;-58
2022/04/03 03:49:46;;;;;;;;;;;0.20;99.90;;;;;;5074140;28;19924;-58
2022/04/03 03:52:13;;;;;;;;;;;0.30;99.90;;;;;;5085834;28;19932;-57
2022/04/03 03:54:40;;;;;;;;;;;0.50;99.90;;;;;;5079673;28;19931;-59
2022/04/03 03:57:07;;;;;;;;;;;0.40;99.90;;;;;;5081578;28;19924;-57
2022/04/03 03:59:35;;;;;;;;;;;0.30;99.90;;;;;;5091980;28;19928;-58
2022/04/03 04:02:02;;;;;;;;;;;0.20;99.90;;;;;;5084302;28;19924;-58
2022/04/03 04:04:29;;;;;;;;;;;0.00;99.90;;;;;;5077295;28;19978;-57
2022/04/03 04:06:56;;;;;;;;;;;-0.10;99.90;;;;;;5076360;28;19931;-58
2022/04/03 04:09:23;;;;;;;;;;;-0.10;99.90;;;;;;5073435;28;19932;-57
2022/04/03 04:11:50;;;;;;;;;;;0.00;99.90;;;;;;5080336;28;20308;-58
2022/04/03 04:14:17;;;;;;;;;;;-0.10;99.90;;;;;;5085650;28;19924;-57
2022/04/03 04:16:46;;;;;;;;;;;-0.20;99.90;;;;;;5081376;28;19932;-57
2022/04/03 04:19:13;;;;;;;;;;;-0.10;99.90;;;;;;5084776;28;20019;-58
2022/04/03 04:21:39;;;;;;;;;;;-0.20;99.90;;;;;;5073676;28;20378;-57
2022/04/03 04:24:06;;;;;;;;;;;-0.20;99.90;;;;;;5084107;28;20406;-59
2022/04/03 04:26:33;;;;;;;;;;;-0.40;99.90;;;;;;5087648;28;19928;-58
2022/04/03 04:29:01;;;;;;;;;;;-0.40;99.90;;;;;;5078499;28;19978;-57
2022/04/03 04:31:27;;;;;;;;;;;-0.50;99.90;;;;;;5081642;28;19931;-57
2022/04/03 04:33:56;;;;;;;;;;;-0.60;99.90;;;;;;5079165;28;19929;-57
2022/04/03 04:36:22;;;;;;;;;;;-0.60;99.90;;;;;;5075415;28;19924;-59
2022/04/03 04:38:49;;;;;;;;;;;-0.60;99.90;;;;;;5091713;28;19978;-58
2022/04/03 04:41:19;;;;;;;;;;;-0.60;99.90;;;;;;5088087;28;20019;-57
2022/04/03 04:43:46;;;;;;;;;;;-0.60;99.90;;;;;;5078002;28;20366;-57
2022/04/03 04:46:16;;;;;;;;;;;-0.60;99.90;;;;;;5081602;28;19924;-57
2022/04/03 04:48:43;;;;;;;;;;;-0.60;99.90;;;;;;5084365;28;20019;-57
2022/04/03 04:51:15;;;;;;;;;;;-0.60;99.90;;;;;;5092369;28;20435;-57
2022/04/03 04:53:41;;;;;;;;;;;-0.60;99.90;;;;;;5074224;28;19932;-59
2022/04/03 04:56:09;;;;;;;;;;;-0.70;99.90;;;;;;5091443;28;20442;-56
2022/04/03 04:58:35;;;;;;;;;;;-0.70;99.90;;;;;;5085594;28;19929;-58
2022/04/03 05:01:02;;;;;;;;;;;-0.70;99.90;;;;;;5090016;28;19924;-56
2022/04/03 05:03:29;;;;;;;;;;;-0.80;99.90;;;;;;5082743;28;19992;-57
2022/04/03 05:05:56;;;;;;;;;;;-0.80;99.90;;;;;;5092829;28;20320;-57
2022/04/03 05:08:24;;;;;;;;;;;-0.70;99.90;;;;;;5092455;28;20014;-57
2022/04/03 05:10:52;;;;;;;;;;;-0.80;99.90;;;;;;5093146;28;19924;-58
2022/04/03 05:13:25;;;;;;;;;;;-0.70;99.90;;;;;;5092853;28;19924;-57
2022/04/03 05:15:52;;;;;;;;;;;-0.60;99.90;;;;;;5091594;28;20010;-57
2022/04/03 05:18:19;;;;;;;;;;;-0.60;99.90;;;;;;5088470;28;20030;-57
2022/04/03 05:20:46;;;;;;;;;;;-0.50;99.90;;;;;;5091013;28;20417;-58
2022/04/03 05:23:13;;;;;;;;;;;-0.30;99.90;;;;;;5085321;28;20342;-56
2022/04/03 05:25:41;;;;;;;;;;;-0.20;99.90;;;;;;5084515;28;20397;-58
2022/04/03 05:28:09;;;;;;;;;;;0.00;99.90;;;;;;5092273;28;19984;-58
2022/04/03 05:30:36;;;;;;;;;;;0.20;99.90;;;;;;5088561;28;20010;-57
2022/04/03 05:33:03;;;;;;;;;;;0.30;99.90;;;;;;5091521;28;19924;-58
2022/04/03 05:35:29;;;;;;;;;;;0.30;99.90;;;;;;5087940;28;20165;-57
2022/04/03 05:37:56;;;;;;;;;;;0.50;99.90;;;;;;5076317;28;19928;-58
2022/04/03 05:40:23;;;;;;;;;;;0.50;99.90;;;;;;5089841;28;20400;-57
2022/04/03 05:42:51;;;;;;;;;;;0.50;99.90;;;;;;5079469;28;20439;-58
2022/04/03 05:45:19;;;;;;;;;;;0.70;99.90;;;;;;5081502;28;19925;-58
2022/04/03 05:47:45;;;;;;;;;;;0.90;99.90;;;;;;5082057;28;19932;-57
2022/04/03 05:50:14;;;;;;;;;;;1.30;99.90;;;;;;5080709;28;19928;-57
2022/04/03 05:52:42;;;;;;;;;;;1.50;99.90;;;;;;5077634;28;19928;-57
2022/04/03 05:55:09;;;;;;;;;;;1.90;99.90;;;;;;5085444;28;19954;-57
2022/04/03 05:57:37;;;;;;;;;;;2.50;99.90;;;;;;5092401;28;19924;-58
2022/04/03 06:00:07;;;;;;;;;;;3.60;99.90;;;;;;5076926;28;20010;-58
2022/04/03 06:02:41;;;;;;;;;;;4.50;99.90;;;;;;5079605;28;20006;-57
2022/04/03 06:05:08;;;;;;;;;;;5.70;99.90;;;;;;5086651;28;20485;-57
2022/04/03 06:07:35;;;;;;;;;;;6.00;99.90;;;;;;5094971;28;19950;-58
2022/04/03 06:10:02;;;;;;;;;;;6.10;99.90;;;;;;5090889;28;19928;-57
2022/04/03 06:12:29;;;;;;;;;;;6.30;99.90;;;;;;5096937;28;19924;-57
2022/04/03 06:14:56;;;;;;;;;;;6.80;99.90;;;;;;5088746;28;20011;-56
2022/04/03 06:17:24;;;;;;;;;;;7.60;99.90;;;;;;5086411;28;20023;-57
2022/04/03 06:19:51;;;;;;;;;;;8.80;99.90;;;;;;5093546;28;19962;-57
2022/04/03 06:22:18;;;;;;;;;;;9.70;99.90;;;;;;5093923;28;19965;-56
2022/04/03 06:24:45;;;;;;;;;;;10.60;99.90;;;;;;5093650;28;19948;-56
2022/04/03 06:27:12;;;;;;;;;;;11.20;99.90;;;;;;5092927;28;19935;-57
2022/04/03 06:29:38;;;;;;;;;;;12.30;99.90;;;;;;5092381;28;20005;-57
2022/04/03 06:32:05;;;;;;;;;;;13.20;99.90;;;;;;5083993;28;19935;-57
2022/04/03 06:34:34;;;;;;;;;;;14.10;98.80;;;;;;5084372;28;19927;-57
2022/04/03 06:37:01;;;;;;;;;;;14.50;97.90;;;;;;5092340;28;19924;-57
2022/04/03 06:39:28;;;;;;;;;;;15.70;95.00;;;;;;5080824;28;19935;-57
2022/04/03 06:41:55;;;;;;;;;;;16.20;93.00;;;;;;5090895;28;20439;-57
2022/04/03 06:44:23;;;;;;;;;;;16.60;90.90;;;;;;5084763;28;19928;-56
2022/04/03 06:46:50;;;;;;;;;;;16.50;86.20;;;;;;5084886;28;19932;-56
2022/04/03 06:49:17;;;;;;;;;;;15.80;88.00;;;;;;5083636;28;19924;-57
2022/04/03 06:51:45;;;;;;;;;;;14.60;90.30;;;;;;5078166;28;19924;-57
2022/04/03 06:54:12;;;;;;;;;;;13.10;90.80;;;;;;5089509;28;19924;-56
2022/04/03 06:56:39;;;;;;;;;;;12.00;91.10;;;;;;5091395;28;19936;-56
2022/04/03 06:59:06;;;;;;;;;;;11.00;91.80;;;;;;5087419;28;19967;-57
2022/04/03 07:01:32;;;;;;;;;;;10.20;92.80;;;;;;5083438;28;19931;-57
2022/04/03 07:03:59;;;;;;;;;;;9.20;94.60;;;;;;5075387;28;19982;-57
2022/04/03 07:06:26;;;;;;;;;;;9.00;95.50;;;;;;5091603;28;20016;-57
2022/04/03 07:08:54;;;;;;;;;;;8.80;97.20;;;;;;5091772;28;19924;-57
2022/04/03 07:11:21;;;;;;;;;;;9.30;97.10;;;;;;5092901;28;19924;-57
2022/04/03 07:13:48;;;;;;;;;;;10.50;95.20;;;;;;5089219;28;19997;-56
2022/04/03 07:16:15;;;;;;;;;;;11.40;94.10;;;;;;5087809;28;19932;-57
2022/04/03 07:18:42;;;;;;;;;;;11.80;92.60;;;;;;5093126;28;19996;-58
2022/04/03 07:21:09;;;;;;;;;;;12.90;92.70;;;;;;5076883;28;19932;-56
2022/04/03 07:23:36;;;;;;;;;;;14.20;91.10;;;;;;5084500;28;19965;-56
2022/04/03 07:26:05;;;;;;;;;;;15.40;90.50;;;;;;5092501;28;20312;-57
2022/04/03 07:28:32;;;;;;;;;;;16.40;86.80;;;;;;5087219;28;19939;-57
2022/04/03 07:31:04;;;;;;;;;;;17.30;82.60;;;;;;5079257;28;19925;-58
2022/04/03 07:33:31;;;;;;;;;;;18.00;80.60;;;;;;5091381;28;20010;-57
2022/04/03 07:35:57;;;;;;;;;;;17.60;77.70;;;;;;5092265;28;19985;-58
2022/04/03 07:38:24;;;;;;;;;;;17.80;78.80;;;;;;5090607;28;19928;-58
2022/04/03 07:40:51;;;;;;;;;;;17.30;77.10;;;;;;5091583;28;20382;-57
2022/04/03 07:43:19;;;;;;;;;;;17.10;75.80;;;;;;5091815;28;20021;-56
2022/04/03 07:45:46;;;;;;;;;;;17.40;76.50;;;;;;5092081;28;19993;-57
2022/04/03 07:48:13;;;;;;;;;;;17.10;77.50;;;;;;5091820;28;19932;-57
2022/04/03 07:50:40;;;;;;;;;;;17.70;76.00;;;;;;5091672;28;19985;-56
2022/04/03 07:53:07;;;;;;;;;;;16.80;76.70;;;;;;5092112;28;20435;-56
2022/04/03 07:55:34;;;;;;;;;;;17.00;77.20;;;;;;5091858;28;19928;-56
2022/04/03 07:58:01;;;;;;;;;;;14.90;80.90;;;;;;5091844;28;19954;-56
2022/04/03 08:00:29;;;;;;;;;;;14.40;82.10;;;;;;5091653;28;19928;-56
2022/04/03 08:02:56;;;;;;;;;;;15.00;80.70;;;;;;5091210;28;19924;-56
2022/04/03 08:05:22;;;;;;;;;;;15.80;79.70;;;;;;5087012;28;19932;-57
2022/04/03 08:07:49;;;;;;;;;;;17.60;78.60;;;;;;5092230;28;19997;-57
2022/04/03 08:10:16;;;;;;;;;;;19.00;78.20;;;;;;5091611;28;20005;-57
2022/04/03 08:12:44;;;;;;;;;;;19.90;73.50;;;;;;5093874;28;19985;-58
2022/04/03 08:15:11;;;;;;;;;;;19.80;70.60;;;;;;5091924;28;19949;-56
2022/04/03 08:17:40;;;;;;;;;;;18.00;73.00;;;;;;5091245;28;19992;-57
2022/04/03 08:20:08;;;;;;;;;;;17.50;73.70;;;;;;5089656;28;19924;-57
2022/04/03 08:22:35;;;;;;;;;;;18.00;75.00;;;;;;5087017;28;19924;-57
2022/04/03 08:25:02;;;;;;;;;;;16.80;74.30;;;;;;5091092;28;19924;-57
2022/04/03 08:27:40;;;;;;;;;;;17.00;75.90;;;;;;5076940;28;19978;-57
2022/04/03 08:30:07;;;;;;;;;;;18.00;71.90;;;;;;5070992;28;19982;-56
2022/04/03 08:32:34;;;;;;;;;;;18.20;71.10;;;;;;5089312;28;19932;-57
2022/04/03 08:35:02;;;;;;;;;;;18.20;71.00;;;;;;5090996;28;20463;-57
2022/04/03 08:37:29;;;;;;;;;;;18.20;75.20;;;;;;5091329;28;19927;-57
2022/04/03 08:39:56;;;;;;;;;;;20.30;69.20;;;;;;5089530;28;20319;-57
2022/04/03 08:42:22;;;;;;;;;;;20.30;63.10;;;;;;5084720;28;19928;-57
2022/04/03 08:44:49;;;;;;;;;;;20.90;65.70;;;;;;5087738;28;20409;-58
2022/04/03 08:47:17;;;;;;;;;;;21.70;66.80;;;;;;5084534;28;19924;-58
2022/04/03 08:49:47;;;;;;;;;;;21.60;68.00;;;;;;5087457;28;20413;-58
2022/04/03 08:52:15;;;;;;;;;;;20.90;64.50;;;;;;5089597;28;20492;-57
2022/04/03 08:54:42;;;;;;;;;;;18.30;67.60;;;;;;5091049;28;19947;-57
2022/04/03 08:57:09;;;;;;;;;;;17.30;69.30;;;;;;5086317;28;19925;-57
2022/04/03 08:59:37;;;;;;;;;;;15.50;68.60;;;;;;5083434;28;19924;-56
2022/04/03 09:02:04;;;;;;;;;;;15.20;69.80;;;;;;5084998;28;19938;-56
2022/04/03 09:04:31;;;;;;;;;;;14.20;71.30;;;;;;5081190;28;20355;-57
2022/04/03 09:06:59;;;;;;;;;;;13.90;71.30;;;;;;5083293;28;20699;-57
2022/04/03 09:09:28;;;;;;;;;;;15.00;72.20;;;;;;5086248;28;20006;-56
2022/04/03 09:12:07;;;;;;;;;;;14.00;71.80;;;;;;5086663;28;19924;-57
2022/04/03 09:14:34;;;;;;;;;;;12.90;75.30;;;;;;5088546;28;20394;-56
2022/04/03 09:17:02;;;;;;;;;;;11.50;78.20;;;;;;5082364;28;20321;-57
2022/04/03 09:19:32;;;;;;;;;;;9.90;83.20;;;;;;5086514;28;19944;-56
2022/04/03 09:21:58;;;;;;;;;;;9.50;86.00;;;;;;5084360;28;19932;-57
2022/04/03 09:24:25;;;;;;;;;;;8.80;88.70;;;;;;5088552;28;19965;-57
2022/04/03 09:26:59;;;;;;;;;;;8.20;88.60;;;;;;5087635;28;19932;-57
2022/04/03 09:29:26;;;;;;;;;;;7.50;91.70;;;;;;5090799;28;19928;-56
2022/04/03 09:31:58;;;;;;;;;;;6.80;92.90;;;;;;5092456;28;19928;-56
2022/04/03 09:34:26;;;;;;;;;;;5.90;94.20;;;;;;5092690;28;20382;-57
2022/04/03 09:36:57;;;;;;;;;;;5.50;95.00;;;;;;5093127;28;19924;-56
2022/04/03 09:39:26;;;;;;;;;;;5.60;98.00;;;;;;5095186;28;19925;-56
2022/04/03 09:42:01;;;;;;;;;;;5.20;98.40;;;;;;5097843;28;19932;-57
2022/04/03 09:44:29;;;;;;;;;;;5.10;99.60;;;;;;5096289;28;20309;-56
2022/04/03 09:47:12;;;;;;;;;;;5.00;99.90;;;;;;5098210;28;19928;-56
2022/04/03 09:49:39;;;;;;;;;;;5.00;99.90;;;;;;5083454;28;19928;-56
2022/04/03 09:52:07;;;;;;;;;;;5.60;99.90;;;;;;5084859;28;19925;-56
2022/04/03 09:54:34;;;;;;;;;;;6.00;99.90;;;;;;5093464;28;19940;-56
2022/04/03 09:57:15;;;;;;;;;;;6.60;99.90;;;;;;5088026;28;19928;-56
2022/04/03 09:59:49;;;;;;;;;;;6.80;99.90;;;;;;5087039;28;19966;-57
2022/04/03 10:02:16;;;;;;;;;;;8.00;99.90;;;;;;5082653;28;19924;-57
2022/04/03 10:04:44;;;;;;;;;;;8.10;98.40;;;;;;5086328;28;19924;-56
2022/04/03 10:07:12;;;;;;;;;;;7.30;98.80;;;;;;5090304;28;20054;-56
2022/04/03 10:09:43;;;;;;;;;;;7.20;99.60;;;;;;5085573;28;19978;-56
2022/04/03 10:12:11;;;;;;;;;;;7.20;99.80;;;;;;5092686;28;19928;-56
2022/04/03 10:14:40;;;;;;;;;;;6.80;99.50;;;;;;5085851;28;19925;-56
2022/04/03 10:17:08;;;;;;;;;;;7.20;99.00;;;;;;5076489;28;19924;-56
2022/04/03 10:19:35;;;;;;;;;;;7.20;98.90;;;;;;5075977;28;19959;-56
2022/04/03 10:22:02;;;;;;;;;;;6.60;99.20;;;;;;5095170;28;19924;-56
2022/04/03 10:24:29;;;;;;;;;;;6.80;99.90;;;;;;5085397;28;19924;-56
2022/04/03 10:26:58;;;;;;;;;;;7.80;99.90;;;;;;5079550;28;19979;-56
2022/04/03 10:29:26;;;;;;;;;;;9.50;98.20;;;;;;5083434;28;19950;-56
2022/04/03 10:31:56;;;;;;;;;;;10.50;95.20;;;;;;5086322;28;19999;-56
2022/04/03 10:34:26;;;;;;;;;;;10.40;93.10;;;;;;5089090;28;20053;-56
2022/04/03 10:36:53;;;;;;;;;;;9.20;92.80;;;;;;5090016;28;19930;-56
2022/04/03 10:39:23;;;;;;;;;;;8.20;95.10;;;;;;5086902;28;19928;-56
2022/04/03 10:41:50;;;;;;;;;;;7.50;97.00;;;;;;5086489;28;20356;-56
2022/04/03 10:44:19;;;;;;;;;;;7.10;97.00;;;;;;5086564;28;19969;-56
2022/04/03 10:47:04;;;;;;;;;;;6.50;97.60;;;;;;5090479;28;19999;-56
2022/04/03 10:49:33;;;;;;;;;;;6.30;98.80;;;;;;5086967;28;19928;-56
2022/04/03 10:52:02;;;;;;;;;;;6.30;99.50;;;;;;5090751;28;19924;-56
2022/04/03 10:54:30;;;;;;;;;;;6.10;99.50;;;;;;5090070;28;19972;-56
2022/04/03 10:57:11;;;;;;;;;;;6.00;99.90;;;;;;5089497;28;19959;-55
2022/04/03 10:59:38;;;;;;;;;;;5.60;99.90;;;;;;5093475;28;19932;-56
2022/04/03 11:02:13;;;;;;;;;;;5.50;99.90;;;;;;5082159;28;19928;-56
2022/04/03 11:04:41;;;;;;;;;;;5.60;99.90;;;;;;5081797;28;19978;-55
2022/04/03 11:07:14;;;;;;;;;;;5.50;99.90;;;;;;5077571;28;19936;-55
2022/04/03 11:09:41;;;;;;;;;;;5.00;99.90;;;;;;5083965;28;19928;-56
2022/04/03 11:12:08;;;;;;;;;;;5.00;99.90;;;;;;5089915;28;20024;-56
2022/04/03 11:14:55;;;;;;;;;;;4.80;99.90;;;;;;5092150;28;19927;-55
2022/04/03 11:17:40;;;;;;;;;;;4.80;99.90;;;;;;5088701;28;19931;-56
2022/04/03 11:20:09;;;;;;;;;;;4.90;99.90;;;;;;5090335;28;19981;-55
2022/04/03 11:22:37;;;;;;;;;;;5.00;99.90;;;;;;5095499;28;19970;-55
2022/04/03 11:25:04;;;;;;;;;;;5.00;99.90;;;;;;5093843;28;19970;-56
2022/04/03 11:27:30;;;;;;;;;;;4.80;99.90;;;;;;5083257;28;19933;-55
2022/04/03 11:29:59;;;;;;;;;;;4.80;99.90;;;;;;5090281;28;20348;-55
2022/04/03 11:32:26;;;;;;;;;;;5.00;99.90;;;;;;5080706;28;20020;-55
2022/04/03 11:34:57;;;;;;;;;;;5.00;99.90;;;;;;5086899;28;19947;-55
2022/04/03 11:37:25;;;;;;;;;;;4.90;99.90;;;;;;5084580;28;19924;-55
2022/04/03 11:39:53;;;;;;;;;;;4.90;99.90;;;;;;5086623;28;19924;-55
2022/04/03 11:42:23;;;;;;;;;;;4.80;99.90;;;;;;5085591;28;20407;-55
2022/04/03 11:44:52;;;;;;;;;;;4.80;99.90;;;;;;5085331;28;19982;-55
2022/04/03 11:47:20;;;;;;;;;;;4.50;99.90;;;;;;5084349;28;19974;-55
2022/04/03 11:49:47;;;;;;;;;;;4.70;99.90;;;;;;5085185;28;20024;-55
2022/04/03 11:52:15;;;;;;;;;;;4.70;99.90;;;;;;5080350;28;19924;-56
2022/04/03 11:54:55;;;;;;;;;;;5.00;99.90;;;;;;5083740;28;19928;-54
2022/04/03 11:57:21;;;;;;;;;;;5.00;99.90;;;;;;5088687;28;19970;-55
2022/04/03 11:59:52;;;;;;;;;;;5.00;99.90;;;;;;5088709;28;20398;-54
2022/04/03 12:02:20;;;;;;;;;;;5.10;99.90;;;;;;5082991;28;19928;-55
2022/04/03 12:04:46;;;;;;;;;;;5.10;99.90;;;;;;5079534;28;19932;-54
2022/04/03 12:07:14;;;;;;;;;;;5.40;99.90;;;;;;5074004;28;20440;-54
2022/04/03 12:09:43;;;;;;;;;;;5.30;99.90;;;;;;5079182;28;19924;-54
2022/04/03 12:12:10;;;;;;;;;;;5.40;99.90;;;;;;5073606;28;19924;-54
2022/04/03 12:14:39;;;;;;;;;;;5.50;99.90;;;;;;5083868;28;19924;-54
2022/04/03 12:17:07;;;;;;;;;;;5.30;99.90;;;;;;5075306;28;19925;-54
2022/04/03 12:19:35;;;;;;;;;;;5.60;99.90;;;;;;5076640;28;20340;-54
2022/04/03 12:22:04;;;;;;;;;;;5.80;99.90;;;;;;5082568;28;20389;-54
2022/04/03 12:24:31;;;;;;;;;;;6.00;99.90;;;;;;5084217;28;19928;-54
2022/04/03 12:27:00;;;;;;;;;;;6.20;99.90;;;;;;5081382;28;19997;-53
2022/04/03 12:29:28;;;;;;;;;;;6.20;99.90;;;;;;5078252;28;19924;-54
2022/04/03 12:31:59;;;;;;;;;;;6.50;99.90;;;;;;5081077;28;20359;-53
2022/04/03 12:34:26;;;;;;;;;;;6.20;99.90;;;;;;5082874;28;19925;-53
2022/04/03 12:36:54;;;;;;;;;;;6.60;99.90;;;;;;5078417;28;19994;-53
2022/04/03 12:39:31;;;;;;;;;;;6.40;99.90;;;;;;5084528;28;19924;-55
2022/04/03 12:42:13;;;;;;;;;;;6.70;99.90;;;;;;5082702;28;19929;-54
2022/04/03 12:44:44;;;;;;;;;;;7.00;99.90;;;;;;5078697;28;20023;-54
2022/04/03 12:47:17;;;;;;;;;;;7.60;99.90;;;;;;5073211;28;19924;-54
2022/04/03 12:49:51;;;;;;;;;;;7.50;99.90;;;;;;5076371;28;19929;-54
2022/04/03 12:52:35;;;;;;;;;;;6.90;99.90;;;;;;5072762;28;20390;-55
2022/04/03 12:55:02;;;;;;;;;;;6.60;99.90;;;;;;5063078;28;20001;-55
2022/04/03 13:00:18;;;;;;;;;;;6.50;99.90;;;;;;5073197;28;19955;-54
2022/04/03 13:02:46;;;;;;;;;;;6.20;99.90;;;;;;5073093;28;19970;-54
2022/04/03 13:05:13;;;;;;;;;;;6.10;99.90;;;;;;5082213;28;19928;-55
2022/04/03 13:07:40;;;;;;;;;;;5.80;99.90;;;;;;5095434;28;19977;-55
2022/04/03 13:10:13;;;;;;;;;;;5.40;99.90;;;;;;5093543;28;20404;-55
2022/04/03 13:12:41;;;;;;;;;;;5.60;99.90;;;;;;5080179;28;19924;-54
2022/04/03 13:15:09;;;;;;;;;;;5.70;99.90;;;;;;5093755;28;19924;-55
2022/04/03 13:17:35;;;;;;;;;;;5.90;99.90;;;;;;5090297;28;19928;-55
2022/04/03 13:20:02;;;;;;;;;;;5.30;99.90;;;;;;5096458;28;19928;-53
2022/04/03 13:22:29;;;;;;;;;;;4.90;99.90;;;;;;5096708;28;19982;-55
2022/04/03 13:24:56;;;;;;;;;;;4.60;99.90;;;;;;5096647;28;19962;-55
2022/04/03 13:27:23;;;;;;;;;;;4.70;99.90;;;;;;5096665;28;20330;-55
2022/04/03 13:29:51;;;;;;;;;;;4.40;99.90;;;;;;5096543;28;20425;-54
2022/04/03 13:32:20;;;;;;;;;;;4.50;99.90;;;;;;5096177;28;19978;-53
2022/04/03 13:34:47;;;;;;;;;;;4.60;99.90;;;;;;5096633;28;19924;-55
2022/04/03 13:37:14;;;;;;;;;;;4.90;99.90;;;;;;5096283;28;19993;-55
2022/04/03 13:39:41;;;;;;;;;;;5.00;99.90;;;;;;5095752;28;19993;-53
2022/04/03 13:42:10;;;;;;;;;;;5.10;99.90;;;;;;5095847;28;20530;-52
2022/04/03 13:44:37;;;;;;;;;;;5.10;99.90;;;;;;5096918;28;20349;-54
2022/04/03 13:47:06;;;;;;;;;;;5.00;99.90;;;;;;5096998;28;20336;-53
2022/04/03 13:49:33;;;;;;;;;;;5.10;99.90;;;;;;5093698;28;19924;-54
2022/04/03 13:52:00;;;;;;;;;;;5.30;99.90;;;;;;5096674;28;19981;-53
2022/04/03 13:54:27;;;;;;;;;;;5.40;99.90;;;;;;5096699;28;19928;-53
2022/04/03 13:56:54;;;;;;;;;;;5.30;99.90;;;;;;5096822;28;20000;-53
2022/04/03 13:59:21;;;;;;;;;;;5.20;99.90;;;;;;5097077;28;19924;-53
2022/04/03 14:01:48;;;;;;;;;;;5.20;99.90;;;;;;5096301;28;19935;-53
2022/04/03 14:04:17;;;;;;;;;;;5.30;99.90;;;;;;5096350;28;19928;-53
2022/04/03 14:06:44;;;;;;;;;;;5.50;99.90;;;;;;5097516;28;19924;-53
2022/04/03 14:09:10;;;;;;;;;;;5.50;99.90;;;;;;5097054;28;19931;-56
2022/04/03 14:11:41;;;;;;;;;;;5.30;99.90;;;;;;5096401;28;20300;-55
2022/04/03 14:14:07;;;;;;;;;;;4.80;99.90;;;;;;5095456;28;19931;-54
2022/04/03 14:16:34;;;;;;;;;;;4.70;99.90;;;;;;5096148;28;19924;-54
2022/04/03 14:19:02;;;;;;;;;;;4.80;99.90;;;;;;5096418;28;19985;-54
2022/04/03 14:21:32;;;;;;;;;;;4.70;99.90;;;;;;5094922;28;19932;-54
2022/04/03 14:23:58;;;;;;;;;;;4.70;99.90;;;;;;5095690;28;19935;-54
2022/04/03 14:26:25;;;;;;;;;;;4.60;99.90;;;;;;5095245;28;20001;-55
2022/04/03 14:28:52;;;;;;;;;;;4.30;99.90;;;;;;5095608;28;20394;-53
2022/04/03 14:31:19;;;;;;;;;;;4.50;99.90;;;;;;5095478;28;19924;-54
2022/04/03 14:33:46;;;;;;;;;;;4.70;99.90;;;;;;5095375;28;19927;-54